createdAt,value
2023-04-05T00:02:24.607Z,7.80
2023-04-05T00:04:54.892Z,8.28
2023-04-05T00:07:24.497Z,8.00
2023-04-05T00:09:52.710Z,8.00
2023-04-05T00:12:20.960Z,7.47
2023-04-05T00:14:49.237Z,7.70
2023-04-05T00:17:17.947Z,8.05
2023-04-05T00:19:47.827Z,7.42
2023-04-05T00:22:17.743Z,8.80
2023-04-05T00:24:45.979Z,8.05
2023-04-05T00:27:14.275Z,8.33
2023-04-05T00:29:42.512Z,9.48
2023-04-05T00:32:10.815Z,10.03
2023-04-05T00:34:39.129Z,9.58
2023-04-05T00:37:07.380Z,9.65
2023-04-05T00:39:35.639Z,8.48
2023-04-05T00:42:04.340Z,8.40
2023-04-05T00:44:35.952Z,7.25
2023-04-05T00:47:07.504Z,8.07
2023-04-05T00:49:38.006Z,7.35
2023-04-05T00:52:06.836Z,7.62
2023-04-05T00:54:35.611Z,7.12
2023-04-05T00:57:05.581Z,6.60
2023-04-05T00:59:33.882Z,6.55
2023-04-05T01:02:04.707Z,7.58
2023-04-05T01:04:34.032Z,7.12
2023-04-05T01:07:10.225Z,6.20
2023-04-05T01:09:40.188Z,6.25
2023-04-05T01:12:09.898Z,6.55
2023-04-05T01:14:44.911Z,6.92
2023-04-05T01:17:13.163Z,6.53
2023-04-05T01:19:43.116Z,6.75
2023-04-05T01:22:29.805Z,7.55
2023-04-05T01:25:36.828Z,7.70
2023-04-05T01:28:09.381Z,7.12
2023-04-05T01:33:16.233Z,8.55
2023-04-05T01:35:54.531Z,6.33
2023-04-05T01:38:25.240Z,7.45
2023-04-05T01:40:54.399Z,7.53
2023-04-05T01:43:22.745Z,7.55
2023-04-05T01:45:50.989Z,7.17
2023-04-05T01:48:19.250Z,6.62
2023-04-05T01:50:47.518Z,8.40
2023-04-05T01:53:15.757Z,7.90
2023-04-05T01:55:44.004Z,7.17
2023-04-05T01:58:12.266Z,7.62
2023-04-05T02:00:40.728Z,7.45
2023-04-05T02:03:09.344Z,8.68
2023-04-05T02:05:37.661Z,7.10
2023-04-05T02:08:05.980Z,7.15
2023-04-05T02:10:35.435Z,6.78
2023-04-05T02:13:03.691Z,6.58
2023-04-05T02:15:33.026Z,6.72
2023-04-05T02:18:04.188Z,6.20
2023-04-05T02:20:32.886Z,5.97
2023-04-05T02:23:02.202Z,6.90
2023-04-05T02:25:30.612Z,7.22
2023-04-05T02:27:58.866Z,6.60
2023-04-05T02:30:28.906Z,6.17
2023-04-05T02:32:57.329Z,6.83
2023-04-05T02:35:25.804Z,6.67
2023-04-05T02:37:54.064Z,7.17
2023-04-05T02:40:22.783Z,6.28
2023-04-05T02:42:51.038Z,6.33
2023-04-05T02:45:19.563Z,6.67
2023-04-05T02:47:47.834Z,13.88
2023-04-05T02:50:17.719Z,8.73
2023-04-05T02:52:45.972Z,8.70
2023-04-05T02:55:14.228Z,8.88
2023-04-05T02:57:46.421Z,8.15
2023-04-05T03:00:14.860Z,6.67
2023-04-05T03:02:43.125Z,7.58
2023-04-05T03:05:11.342Z,7.87
2023-04-05T03:07:41.223Z,6.85
2023-04-05T03:10:09.577Z,6.97
2023-04-05T03:12:38.812Z,6.80
2023-04-05T03:15:07.392Z,7.28
2023-04-05T03:17:37.235Z,7.65
2023-04-05T03:20:09.318Z,7.60
2023-04-05T03:22:37.566Z,6.95
2023-04-05T03:25:06.305Z,7.75
2023-04-05T03:27:34.563Z,7.45
2023-04-05T03:30:02.818Z,7.55
2023-04-05T03:32:31.162Z,7.67
2023-04-05T03:34:59.417Z,7.17
2023-04-05T03:37:27.673Z,7.60
2023-04-05T03:39:55.931Z,6.90
2023-04-05T03:42:24.198Z,8.73
2023-04-05T03:44:54.111Z,8.33
2023-04-05T03:47:22.417Z,8.90
2023-04-05T03:49:50.705Z,9.83
2023-04-05T03:52:18.951Z,9.78
2023-04-05T03:54:47.226Z,8.33
2023-04-05T03:57:15.452Z,9.40
2023-04-05T03:59:43.725Z,8.10
2023-04-05T04:02:12.003Z,7.90
2023-04-05T04:04:40.956Z,8.60
2023-04-05T04:07:09.277Z,9.05
2023-04-05T04:09:37.509Z,8.50
2023-04-05T04:12:05.877Z,8.43
2023-04-05T04:14:36.611Z,7.87
2023-04-05T04:17:04.851Z,8.48
2023-04-05T04:19:33.158Z,9.05
2023-04-05T04:22:01.491Z,9.20
2023-04-05T04:24:31.394Z,8.68
2023-04-05T04:26:59.635Z,8.80
2023-04-05T04:29:29.549Z,8.78
2023-04-05T04:31:57.840Z,7.67
2023-04-05T04:34:26.065Z,7.05
2023-04-05T04:36:55.991Z,7.65
2023-04-05T04:39:25.884Z,7.97
2023-04-05T04:41:55.790Z,7.50
2023-04-05T04:44:25.701Z,7.78
2023-04-05T04:46:54.782Z,7.22
2023-04-05T04:49:23.783Z,8.15
2023-04-05T04:51:52.113Z,8.53
2023-04-05T04:54:23.181Z,8.45
2023-04-05T04:56:51.474Z,9.08
2023-04-05T04:59:19.787Z,8.13
2023-04-05T05:01:48.110Z,9.03
2023-04-05T05:04:16.432Z,8.38
2023-04-05T05:06:44.852Z,8.65
2023-04-05T05:09:13.124Z,9.45
2023-04-05T05:11:55.070Z,8.95
2023-04-05T05:14:23.314Z,8.53
2023-04-05T05:16:51.592Z,7.85
2023-04-05T05:19:19.996Z,8.23
2023-04-05T05:21:49.890Z,8.65
2023-04-05T05:24:18.178Z,7.92
2023-04-05T05:26:46.411Z,7.30
2023-04-05T05:29:14.684Z,7.90
2023-04-05T05:31:42.929Z,8.28
2023-04-05T05:34:23.300Z,7.72
2023-04-05T05:36:54.487Z,7.80
2023-04-05T05:39:23.486Z,7.53
2023-04-05T05:41:51.744Z,7.72
2023-04-05T05:44:39.358Z,8.10
2023-04-05T05:47:07.703Z,8.55
2023-04-05T05:49:38.604Z,7.90
2023-04-05T05:52:09.703Z,7.47
2023-04-05T05:54:37.993Z,7.75
2023-04-05T05:57:06.254Z,7.03
2023-04-05T05:59:34.566Z,6.80
2023-04-05T06:02:02.754Z,7.53
2023-04-05T06:04:31.178Z,8.20
2023-04-05T06:06:59.586Z,7.33
2023-04-05T06:09:28.883Z,12.18
2023-04-05T06:11:57.509Z,12.37
2023-04-05T06:14:25.934Z,7.97
2023-04-05T06:16:54.183Z,9.10
2023-04-05T06:19:22.632Z,10.53
2023-04-05T06:21:50.936Z,10.30
2023-04-05T06:24:19.215Z,8.53
2023-04-05T06:26:47.467Z,9.68
2023-04-05T06:29:15.752Z,8.35
2023-04-05T06:31:45.665Z,6.97
2023-04-05T06:34:13.895Z,5.92
2023-04-05T06:36:42.728Z,5.85
2023-04-05T06:39:10.994Z,7.53
2023-04-05T06:41:39.244Z,6.22
2023-04-05T06:44:07.610Z,7.67
2023-04-05T06:46:35.913Z,12.05
2023-04-05T06:49:04.344Z,8.75
2023-04-05T06:51:32.549Z,7.40
2023-04-05T06:54:00.802Z,7.53
2023-04-05T06:56:29.056Z,9.55
2023-04-05T06:58:58.974Z,6.33
2023-04-05T07:01:27.532Z,6.25
2023-04-05T07:03:56.025Z,5.33
2023-04-05T07:06:24.262Z,6.22
2023-04-05T07:08:52.540Z,6.08
2023-04-05T07:11:21.459Z,5.87
2023-04-05T07:13:49.687Z,6.72
2023-04-05T07:16:19.177Z,6.05
2023-04-05T07:18:47.488Z,5.58
2023-04-05T07:21:15.872Z,5.62
2023-04-05T07:23:44.123Z,6.03
2023-04-05T07:26:12.400Z,6.08
2023-04-05T07:28:40.712Z,8.80
2023-04-05T07:31:10.501Z,5.47
2023-04-05T07:33:38.743Z,5.80
2023-04-05T07:36:07.416Z,6.10
2023-04-05T07:38:35.703Z,7.28
2023-04-05T07:41:03.990Z,7.97
2023-04-05T07:43:32.239Z,9.30
2023-04-05T07:46:04.578Z,10.05
2023-04-05T07:48:32.849Z,5.55
2023-04-05T07:51:24.497Z,6.20
2023-04-05T07:53:52.724Z,7.80
2023-04-05T07:56:21.007Z,6.12
2023-04-05T07:58:51.006Z,6.70
2023-04-05T08:01:19.391Z,6.55
2023-04-05T08:03:49.198Z,7.00
2023-04-05T08:06:17.823Z,6.85
2023-04-05T08:08:46.548Z,6.30
2023-04-05T08:11:14.994Z,6.35
2023-04-05T08:13:43.576Z,6.90
2023-04-05T08:16:11.944Z,6.30
2023-04-05T08:18:40.297Z,6.00
2023-04-05T08:21:08.550Z,5.60
2023-04-05T08:23:36.845Z,6.17
2023-04-05T08:26:05.636Z,5.50
2023-04-05T08:28:34.534Z,5.95
2023-04-05T08:31:02.775Z,6.33
2023-04-05T08:33:31.215Z,6.60
2023-04-05T08:36:01.430Z,6.92
2023-04-05T08:38:29.729Z,6.50
2023-04-05T08:40:59.557Z,6.72
2023-04-05T08:43:47.554Z,6.70
2023-04-05T08:46:17.036Z,6.15
2023-04-05T08:48:45.694Z,6.65
2023-04-05T08:51:14.024Z,5.72
2023-04-05T08:53:42.280Z,7.65
2023-04-05T08:56:11.215Z,6.15
2023-04-05T08:58:40.195Z,6.42
2023-04-05T09:01:08.479Z,6.67
2023-04-05T09:03:37.430Z,6.28
2023-04-05T09:06:07.493Z,6.30
2023-04-05T09:08:35.712Z,7.05
2023-04-05T09:11:04.046Z,6.60
2023-04-05T09:13:32.342Z,6.55
2023-04-05T09:16:02.515Z,6.97
2023-04-05T09:18:31.856Z,6.75
2023-04-05T09:21:04.784Z,7.10
2023-04-05T09:23:34.917Z,6.30
2023-04-05T09:26:19.316Z,6.10
2023-04-05T09:28:47.680Z,6.60
2023-04-05T09:31:23.141Z,5.85
2023-04-05T09:33:51.462Z,6.70
2023-04-05T09:36:19.712Z,6.78
2023-04-05T09:38:48.063Z,6.25
2023-04-05T09:41:16.352Z,6.08
2023-04-05T09:43:44.769Z,7.30
2023-04-05T09:46:32.208Z,6.28
2023-04-05T09:49:02.990Z,7.05
2023-04-05T09:51:39.315Z,6.95
2023-04-05T09:54:08.457Z,6.83
2023-04-05T09:56:38.014Z,6.67
2023-04-05T09:59:11.324Z,6.60
2023-04-05T10:01:41.738Z,7.33
2023-04-05T10:04:10.397Z,6.30
2023-04-05T10:06:39.777Z,6.50
2023-04-05T10:09:09.140Z,6.65
2023-04-05T10:11:38.511Z,6.45
2023-04-05T10:14:08.142Z,6.28
2023-04-05T10:16:43.981Z,6.37
2023-04-05T10:19:13.836Z,7.03
2023-04-05T10:21:43.624Z,6.50
2023-04-05T10:24:16.376Z,6.70
2023-04-05T10:29:13.721Z,6.17
2023-04-05T10:31:52.768Z,6.37
2023-04-05T10:34:28.428Z,4.97
2023-04-05T10:37:02.542Z,5.62
2023-04-05T10:39:32.276Z,5.92
2023-04-05T10:42:11.549Z,6.80
2023-04-05T10:44:40.195Z,6.67
2023-04-05T10:47:10.067Z,6.15
2023-04-05T10:49:39.856Z,6.80
2023-04-05T10:52:08.112Z,6.28
2023-04-05T10:54:38.405Z,6.58
2023-04-05T10:57:09.661Z,7.00
2023-04-05T10:59:39.642Z,7.17
2023-04-05T11:02:09.579Z,7.05
2023-04-05T11:04:39.552Z,6.28
2023-04-05T11:07:14.879Z,6.58
2023-04-05T11:09:51.414Z,6.22
2023-04-05T11:12:22.576Z,7.08
2023-04-05T11:14:50.898Z,5.83
2023-04-05T11:17:26.252Z,8.28
2023-04-05T11:20:09.576Z,7.42
2023-04-05T11:22:37.836Z,7.60
2023-04-05T11:25:06.650Z,7.37
2023-04-05T11:27:40.472Z,6.90
2023-04-05T11:30:09.045Z,7.58
2023-04-05T11:32:46.247Z,6.95
2023-04-05T11:35:15.622Z,6.58
2023-04-05T11:37:56.495Z,7.65
2023-04-05T11:40:27.265Z,6.97
2023-04-05T11:43:12.126Z,7.08
2023-04-05T11:45:42.997Z,6.67
2023-04-05T11:48:14.081Z,7.08
2023-04-05T11:50:42.812Z,7.25
2023-04-05T11:53:12.966Z,7.83
2023-04-05T11:55:43.998Z,6.90
2023-04-05T11:58:21.384Z,7.60
2023-04-05T12:01:02.720Z,7.67
2023-04-05T12:03:31.972Z,7.55
2023-04-05T12:06:01.435Z,7.35
2023-04-05T12:08:41.865Z,7.70
2023-04-05T12:11:30.902Z,7.40
2023-04-05T12:14:00.796Z,8.10
2023-04-05T12:16:29.961Z,7.30
2023-04-05T12:18:59.444Z,7.65
2023-04-05T12:21:28.410Z,8.10
2023-04-05T12:23:56.884Z,8.43
2023-04-05T12:26:26.215Z,8.03
2023-04-05T12:28:58.118Z,8.53
2023-04-05T12:31:45.269Z,7.80
2023-04-05T12:34:14.296Z,7.95
2023-04-05T12:36:46.238Z,8.00
2023-04-05T12:39:16.180Z,7.37
2023-04-05T12:41:44.633Z,8.10
2023-04-05T12:44:14.410Z,6.78
2023-04-05T12:46:43.440Z,8.58
2023-04-05T12:49:18.376Z,7.87
2023-04-05T12:51:47.496Z,7.80
2023-04-05T12:54:16.668Z,8.30
2023-04-05T12:56:44.949Z,6.87
2023-04-05T12:59:13.237Z,6.87
2023-04-05T13:01:41.636Z,6.85
2023-04-05T13:04:16.000Z,7.45
2023-04-05T13:06:40.217Z,8.33
2023-04-05T13:09:08.644Z,7.15
2023-04-05T13:11:36.918Z,6.62
2023-04-05T13:14:05.175Z,6.60
2023-04-05T13:16:33.489Z,7.37
2023-04-05T13:19:01.814Z,7.42
2023-04-05T13:21:30.741Z,7.00
2023-04-05T13:23:58.982Z,5.95
2023-04-05T13:26:27.399Z,6.80
2023-04-05T13:28:55.730Z,5.92
2023-04-05T13:31:24.047Z,6.37
2023-04-05T13:33:52.483Z,6.17
2023-04-05T13:36:20.789Z,6.78
2023-04-05T13:38:49.080Z,6.08
2023-04-05T13:41:17.429Z,6.80
2023-04-05T13:43:45.690Z,6.65
2023-04-05T13:46:13.970Z,6.85
2023-04-05T13:48:42.312Z,6.10
2023-04-05T13:51:10.551Z,6.08
2023-04-05T13:53:38.939Z,6.78
2023-04-05T13:56:07.354Z,6.30
2023-04-05T13:58:36.006Z,6.00
2023-04-05T14:01:04.445Z,7.22
2023-04-05T14:03:32.835Z,7.33
2023-04-05T14:06:01.170Z,6.97
2023-04-05T14:08:29.462Z,7.08
2023-04-05T14:10:57.743Z,5.97
2023-04-05T14:13:26.000Z,6.33
2023-04-05T14:15:54.290Z,6.00
2023-04-05T14:18:22.646Z,6.50
2023-04-05T14:20:51.299Z,6.17
2023-04-05T14:23:19.644Z,6.40
2023-04-05T14:25:47.855Z,6.05
2023-04-05T14:28:16.164Z,6.70
2023-04-05T14:30:44.456Z,5.53
2023-04-05T14:33:14.698Z,6.58
2023-04-05T14:35:43.495Z,6.78
2023-04-05T14:38:13.697Z,6.20
2023-04-05T14:40:41.920Z,6.97
2023-04-05T14:43:10.945Z,5.95
2023-04-05T14:45:39.356Z,5.87
2023-04-05T14:48:07.797Z,6.35
2023-04-05T14:50:36.315Z,6.05
2023-04-05T14:53:04.565Z,7.15
2023-04-05T14:55:32.851Z,6.20
2023-04-05T14:58:01.128Z,7.45
2023-04-05T15:00:29.369Z,5.70
2023-04-05T15:02:58.886Z,7.10
2023-04-05T15:05:27.329Z,6.70
2023-04-05T15:07:55.711Z,7.08
2023-04-05T15:10:24.177Z,6.50
2023-04-05T15:12:52.495Z,6.83
2023-04-05T15:15:20.969Z,6.83
2023-04-05T15:17:49.820Z,6.22
2023-04-05T15:20:18.029Z,5.85
2023-04-05T15:22:46.402Z,6.10
2023-04-05T15:25:14.730Z,7.25
2023-04-05T15:27:43.090Z,6.50
2023-04-05T15:30:14.026Z,6.42
2023-04-05T15:32:42.323Z,6.55
2023-04-05T15:35:10.711Z,6.20
2023-04-05T15:37:39.268Z,5.95
2023-04-05T15:40:07.846Z,6.80
2023-04-05T15:42:36.195Z,6.55
2023-04-05T15:45:04.606Z,6.45
2023-04-05T15:47:32.897Z,6.55
2023-04-05T15:50:01.116Z,6.60
2023-04-05T15:52:29.437Z,5.90
2023-04-05T15:54:57.764Z,6.65
2023-04-05T15:57:26.088Z,6.80
2023-04-05T15:59:54.382Z,6.10
2023-04-05T16:02:22.795Z,6.33
2023-04-05T16:04:51.371Z,6.75
2023-04-05T16:07:19.902Z,6.17
2023-04-05T16:09:48.196Z,6.95
2023-04-05T16:12:16.532Z,6.28
2023-04-05T16:14:44.807Z,7.00
2023-04-05T16:17:13.150Z,6.25
2023-04-05T16:19:41.670Z,7.05
2023-04-05T16:22:10.555Z,6.45
2023-04-05T16:24:39.068Z,6.78
2023-04-05T16:27:07.349Z,6.47
2023-04-05T16:29:35.603Z,7.47
2023-04-05T16:32:04.223Z,6.95
2023-04-05T16:34:32.555Z,6.87
2023-04-05T16:37:00.935Z,6.55
2023-04-05T16:39:29.187Z,7.08
2023-04-05T16:41:57.553Z,6.87
2023-04-05T16:44:26.048Z,6.45
2023-04-05T16:46:54.276Z,6.83
2023-04-05T16:49:22.517Z,6.42
2023-04-05T16:51:50.792Z,7.30
2023-04-05T16:54:19.035Z,6.80
2023-04-05T16:56:47.335Z,7.08
2023-04-05T16:59:16.054Z,6.55
2023-04-05T17:01:44.390Z,6.78
2023-04-05T17:04:12.683Z,7.70
2023-04-05T17:06:41.172Z,7.22
2023-04-05T17:09:18.589Z,7.10
2023-04-05T17:11:47.007Z,7.17
2023-04-05T17:14:15.390Z,7.47
2023-04-05T17:16:43.639Z,7.37
2023-04-05T17:19:11.888Z,7.55
2023-04-05T17:21:40.222Z,8.25
2023-04-05T17:24:08.684Z,7.85
2023-04-05T17:26:37.019Z,7.78
2023-04-05T17:29:05.677Z,7.70
2023-04-05T17:31:34.276Z,7.87
2023-04-05T17:34:02.750Z,8.45
2023-04-05T17:36:31.362Z,8.55
2023-04-05T17:38:59.654Z,8.65
2023-04-05T17:41:28.089Z,9.43
2023-04-05T17:43:56.332Z,8.80
2023-04-05T17:46:37.830Z,9.05
2023-04-05T17:48:56.406Z,8.30
2023-04-05T17:51:24.659Z,9.78
2023-04-05T17:53:52.928Z,9.68
2023-04-05T17:56:22.660Z,8.75
2023-04-05T17:58:51.013Z,8.00
2023-04-05T18:01:19.402Z,8.58
2023-04-05T18:03:47.873Z,8.93
2023-04-05T18:06:17.768Z,8.83
2023-04-05T18:08:46.185Z,8.25
2023-04-05T18:11:14.378Z,8.80
2023-04-05T18:13:42.653Z,9.10
2023-04-05T18:16:11.346Z,8.60
2023-04-05T18:18:39.659Z,8.50
2023-04-05T18:21:07.955Z,8.63
2023-04-05T18:23:36.208Z,9.38
2023-04-05T18:26:07.945Z,8.45
2023-04-05T18:28:36.275Z,8.98
2023-04-05T18:31:04.745Z,9.05
2023-04-05T18:33:32.952Z,8.85
2023-04-05T18:36:01.955Z,9.43
2023-04-05T18:38:30.335Z,9.20
2023-04-05T18:41:21.182Z,8.48
2023-04-05T18:43:51.071Z,9.43
2023-04-05T18:46:19.447Z,11.83
2023-04-05T18:48:49.424Z,11.53
2023-04-05T18:51:17.847Z,10.10
2023-04-05T18:53:46.117Z,9.45
2023-04-05T18:56:14.383Z,9.73
2023-04-05T18:58:42.714Z,9.53
2023-04-05T19:01:12.653Z,9.70
2023-04-05T19:03:45.152Z,8.98
2023-04-05T19:06:13.964Z,9.90
2023-04-05T19:08:42.388Z,9.88
2023-04-05T19:11:31.478Z,9.65
2023-04-05T19:14:01.652Z,9.78
2023-04-05T19:16:30.927Z,25.75
2023-04-05T19:18:59.242Z,10.65
2023-04-05T19:21:27.505Z,9.63
2023-04-05T19:23:55.931Z,8.73
2023-04-05T19:26:24.290Z,8.83
2023-04-05T19:28:52.605Z,9.93
2023-04-05T19:31:20.987Z,9.10
2023-04-05T19:33:50.196Z,9.05
2023-04-05T19:36:18.528Z,9.20
2023-04-05T19:38:46.862Z,9.00
2023-04-05T19:41:15.300Z,9.30
2023-04-05T19:43:43.538Z,10.40
2023-04-05T19:46:12.012Z,10.05
2023-04-05T19:48:40.876Z,10.00
2023-04-05T19:51:10.187Z,9.13
2023-04-05T19:53:50.694Z,8.93
2023-04-05T19:56:23.418Z,8.23
2023-04-05T19:58:53.286Z,8.10
2023-04-05T20:01:35.155Z,8.20
2023-04-05T20:04:05.056Z,9.20
2023-04-05T20:06:34.425Z,8.50
2023-04-05T20:09:04.321Z,9.28
2023-04-05T20:11:32.852Z,8.50
2023-04-05T20:14:02.094Z,8.68
2023-04-05T20:16:34.132Z,8.78
2023-04-05T20:19:06.817Z,21.62
2023-04-05T20:21:35.558Z,12.05
2023-04-05T20:24:05.336Z,12.18
2023-04-05T20:26:33.700Z,9.25
2023-04-05T20:29:03.182Z,10.00
2023-04-05T20:31:32.341Z,8.98
2023-04-05T20:34:02.172Z,8.78
2023-04-05T20:36:32.964Z,9.40
2023-04-05T20:39:02.287Z,9.20
2023-04-05T20:41:31.692Z,9.25
2023-04-05T20:44:00.488Z,8.93
2023-04-05T20:46:28.874Z,10.50
2023-04-05T20:48:57.991Z,8.60
2023-04-05T20:51:26.768Z,8.78
2023-04-05T20:53:54.952Z,8.98
2023-04-05T20:56:23.285Z,9.85
2023-04-05T20:58:52.440Z,9.78
2023-04-05T21:01:20.967Z,9.00
2023-04-05T21:03:49.401Z,9.13
2023-04-05T21:06:17.740Z,10.03
2023-04-05T21:09:05.411Z,10.05
2023-04-05T21:11:33.653Z,11.73
2023-04-05T21:14:01.967Z,11.75
2023-04-05T21:16:31.388Z,9.18
2023-04-05T21:18:59.644Z,9.85
2023-04-05T21:21:27.919Z,10.15
2023-04-05T21:24:02.223Z,10.23
2023-04-05T21:26:31.105Z,9.90
2023-04-05T21:28:59.754Z,9.50
2023-04-05T21:31:28.268Z,9.78
2023-04-05T21:33:56.818Z,10.15
2023-04-05T21:36:26.658Z,9.53
2023-04-05T21:38:55.962Z,9.40
2023-04-05T21:41:24.311Z,8.63
2023-04-05T21:43:52.513Z,9.03
2023-04-05T21:46:21.367Z,9.75
2023-04-05T21:48:49.634Z,9.25
2023-04-05T21:51:17.892Z,9.08
2023-04-05T21:53:46.235Z,9.65
2023-04-05T21:56:15.301Z,9.85
2023-04-05T21:58:43.526Z,9.00
2023-04-05T22:01:11.880Z,9.73
2023-04-05T22:03:40.304Z,10.05
2023-04-05T22:06:08.581Z,10.88
2023-04-05T22:08:36.911Z,10.30
2023-04-05T22:11:05.247Z,10.53
2023-04-05T22:13:33.496Z,12.05
2023-04-05T22:16:01.825Z,11.48
2023-04-05T22:18:30.209Z,10.95
2023-04-05T22:20:58.510Z,11.88
2023-04-05T22:23:26.792Z,10.95
2023-04-05T22:25:55.319Z,10.50
2023-04-05T22:28:23.570Z,10.53
2023-04-05T22:30:51.836Z,10.85
2023-04-05T22:33:20.118Z,10.15
2023-04-05T22:35:48.421Z,9.98
2023-04-05T22:38:16.672Z,10.15
2023-04-05T22:40:46.176Z,11.12
2023-04-05T22:43:14.537Z,11.50
2023-04-05T22:45:42.991Z,11.38
2023-04-05T22:48:11.250Z,11.63
2023-04-05T22:50:39.569Z,12.10
2023-04-05T22:53:08.101Z,11.60
2023-04-05T22:55:38.012Z,10.55
2023-04-05T22:58:06.867Z,10.50
2023-04-05T23:00:38.283Z,10.03
2023-04-05T23:03:06.786Z,12.20
2023-04-05T23:05:36.690Z,11.10
2023-04-05T23:08:05.122Z,10.18
2023-04-05T23:10:33.414Z,10.23
2023-04-05T23:13:01.687Z,10.58
2023-04-05T23:15:29.960Z,9.85
2023-04-05T23:18:00.701Z,10.38
2023-04-05T23:20:28.971Z,10.15
2023-04-05T23:22:57.400Z,9.83
2023-04-05T23:25:25.720Z,9.45
2023-04-05T23:27:54.303Z,10.18
2023-04-05T23:30:22.710Z,10.28
2023-04-05T23:32:51.041Z,11.60
2023-04-05T23:35:19.368Z,11.25
2023-04-05T23:37:47.700Z,11.55
2023-04-05T23:40:16.038Z,11.83
2023-04-05T23:42:46.132Z,11.70
2023-04-05T23:45:14.469Z,12.45
2023-04-05T23:47:43.914Z,12.35
2023-04-05T23:50:12.295Z,13.13
2023-04-05T23:52:40.555Z,10.90
2023-04-05T23:55:09.143Z,12.25
2023-04-05T23:57:37.390Z,10.88
